Terminal Aerodrome Forecast
Issued by NWS

Home | Current Version | Previous Version | Text Only | Print | Product List | Glossary On
Versions: 1 2 3 4 5 6 7 8 9 10 11 12 13 14 15 16 17 18 19 20 21 22 23 24 25 26 27 28
000
FTUS43 KDLH 290538
TAFHYR
TAF
KHYR 290538Z 2906/3006 VRB03KT 3SM BR SCT029
      TEMPO 2908/2912 1SM BR FEW002
     FM291300 04007KT P6SM BKN020
     FM291900 04006KT P6SM SCT020=

USA.gov is the U.S. government's official web portal to all federal, state and local government web resources and services.